createdAt,value
2017-10-12T00:00:17.893Z,58.8
2017-10-12T00:01:20.050Z,59.1
2017-10-12T00:02:21.867Z,58.8
2017-10-12T00:03:23.353Z,58.7
2017-10-12T00:04:24.826Z,58.8
2017-10-12T00:05:26.625Z,59.1
2017-10-12T00:06:28.786Z,59.2
2017-10-12T00:07:30.608Z,59.2
2017-10-12T00:08:32.771Z,59.1
2017-10-12T00:09:34.616Z,58.9
2017-10-12T00:10:36.769Z,59.1
2017-10-12T00:11:38.935Z,59.1
2017-10-12T00:12:40.751Z,58.8
2017-10-12T00:13:42.928Z,58.8
2017-10-12T00:14:44.745Z,59.1
2017-10-12T00:15:46.567Z,58.9
2017-10-12T00:16:48.022Z,58.8
2017-10-12T00:17:49.505Z,59
2017-10-12T00:18:51.320Z,59.3
2017-10-12T00:19:53.143Z,59.1
2017-10-12T00:20:55.307Z,58.8
2017-10-12T00:21:56.786Z,58.8
2017-10-12T00:22:58.585Z,59.3
2017-10-12T00:24:00.037Z,59.1
2017-10-12T00:25:02.200Z,59.1
2017-10-12T00:26:03.667Z,58.8
2017-10-12T00:27:07.135Z,58.9
2017-10-12T00:28:08.935Z,58.8
2017-10-12T00:29:10.754Z,58.8
2017-10-12T00:30:12.594Z,58.8
2017-10-12T00:31:14.072Z,58.7
2017-10-12T00:32:15.545Z,58.8
2017-10-12T00:33:16.313Z,58.7
2017-10-12T00:34:18.148Z,58.8
2017-10-12T00:35:19.964Z,58.8
2017-10-12T00:36:21.784Z,58.8
2017-10-12T00:37:23.955Z,58.7
2017-10-12T00:38:25.776Z,58.8
2017-10-12T00:39:27.599Z,58.7
2017-10-12T00:40:29.758Z,58.7
2017-10-12T00:41:31.235Z,58.8
2017-10-12T00:42:33.054Z,58.7
2017-10-12T00:43:34.873Z,58.9
2017-10-12T00:44:36.327Z,58.6
2017-10-12T00:45:38.508Z,58.9
2017-10-12T00:46:40.681Z,58.6
2017-10-12T00:47:42.844Z,58.7
2017-10-12T00:48:44.663Z,58.8
2017-10-12T00:49:46.461Z,58.7
2017-10-12T00:50:47.912Z,59
2017-10-12T00:51:49.729Z,58.7
2017-10-12T00:52:51.528Z,58.7
2017-10-12T00:53:53.696Z,58.8
2017-10-12T00:54:55.514Z,58.8
2017-10-12T00:55:56.980Z,58.7
2017-10-12T00:56:58.797Z,58.7
2017-10-12T00:58:00.617Z,58.9
2017-10-12T00:59:02.437Z,58.9
2017-10-12T01:00:03.545Z,58.8
2017-10-12T01:01:05.026Z,58.5
2017-10-12T01:02:06.499Z,58.7
2017-10-12T01:03:08.663Z,59
2017-10-12T01:04:10.825Z,58.6
2017-10-12T01:05:12.299Z,58.9
2017-10-12T01:06:14.496Z,58.6
2017-10-12T01:07:16.660Z,58.9
2017-10-12T01:08:18.116Z,59
2017-10-12T01:09:19.576Z,58.7
2017-10-12T01:10:21.734Z,58.7
2017-10-12T01:11:23.246Z,58.9
2017-10-12T01:12:25.419Z,58.9
2017-10-12T01:13:27.585Z,58.8
2017-10-12T01:14:29.383Z,58.9
2017-10-12T01:15:30.837Z,58.9
2017-10-12T01:16:33.000Z,58.6
2017-10-12T01:17:34.832Z,58.9
2017-10-12T01:18:36.996Z,58.7
2017-10-12T01:19:39.160Z,58.7
2017-10-12T01:20:40.634Z,58.8
2017-10-12T01:21:42.457Z,58.7
2017-10-12T01:22:43.914Z,58.8
2017-10-12T01:23:45.384Z,58.7
2017-10-12T01:24:47.211Z,58.8
2017-10-12T01:25:49.019Z,58.8
2017-10-12T01:26:51.187Z,59.1
2017-10-12T01:27:53.007Z,59
2017-10-12T01:28:55.195Z,59.2
2017-10-12T01:29:56.988Z,58.7
2017-10-12T01:30:58.464Z,59.1
2017-10-12T01:31:59.921Z,58.9
2017-10-12T01:33:02.079Z,59.2
2017-10-12T01:34:03.555Z,59.1
2017-10-12T01:35:05.029Z,58.8
2017-10-12T01:36:06.137Z,59
2017-10-12T01:37:07.958Z,58.8
2017-10-12T01:38:09.776Z,59.1
2017-10-12T01:39:11.937Z,59.2
2017-10-12T01:40:14.115Z,59.2
2017-10-12T01:41:15.569Z,59
2017-10-12T01:42:17.400Z,59.1
2017-10-12T01:43:18.854Z,59
2017-10-12T01:44:20.676Z,59.2
2017-10-12T01:45:22.479Z,59.1
2017-10-12T01:46:23.952Z,59
2017-10-12T01:47:25.768Z,59.1
2017-10-12T01:48:27.930Z,59.2
2017-10-12T01:49:29.752Z,59.1
2017-10-12T01:50:31.225Z,59
2017-10-12T01:51:33.045Z,59.2
2017-10-12T01:52:34.843Z,59.1
2017-10-12T01:53:37.003Z,59.1
2017-10-12T01:54:38.823Z,59.1
2017-10-12T01:55:40.641Z,59.1
2017-10-12T01:56:42.098Z,59.1
2017-10-12T01:57:44.258Z,59.1
2017-10-12T01:58:46.076Z,59.3
2017-10-12T01:59:48.250Z,59.4
2017-10-12T02:00:50.061Z,59.1
2017-10-12T02:01:51.880Z,59.4
2017-10-12T02:02:53.701Z,59.2
2017-10-12T02:03:55.524Z,58.9
2017-10-12T02:04:57.343Z,59.1
2017-10-12T02:05:59.504Z,59.4
2017-10-12T02:07:01.667Z,59.1
2017-10-12T02:08:03.467Z,59.2
2017-10-12T02:09:04.917Z,59.2
2017-10-12T02:10:06.026Z,59.1
2017-10-12T02:11:07.161Z,59.1
2017-10-12T02:12:09.341Z,59.2
2017-10-12T02:13:11.173Z,59.1
2017-10-12T02:14:13.011Z,59.2
2017-10-12T02:15:15.176Z,59.1
2017-10-12T02:16:16.996Z,59.1
2017-10-12T02:17:18.815Z,59.2
2017-10-12T02:18:20.630Z,59.3
2017-10-12T02:19:21.741Z,59.3
2017-10-12T02:20:23.562Z,59.4
2017-10-12T02:21:25.730Z,59.2
2017-10-12T02:22:27.887Z,59.2
2017-10-12T02:23:29.684Z,59.2
2017-10-12T02:24:30.793Z,59.3
2017-10-12T02:25:32.955Z,59.3
2017-10-12T02:26:34.090Z,59.1
2017-10-12T02:27:35.909Z,59.1
2017-10-12T02:28:37.364Z,59.2
2017-10-12T02:29:39.182Z,59.1
2017-10-12T02:30:40.315Z,59.2
2017-10-12T02:31:42.135Z,59
2017-10-12T02:32:43.953Z,59.3
2017-10-12T02:33:45.759Z,59.2
2017-10-12T02:34:47.213Z,59.3
2017-10-12T02:35:49.376Z,59.2
2017-10-12T02:36:51.169Z,59.1
2017-10-12T02:37:53.006Z,59.1
2017-10-12T02:38:54.863Z,59.1
2017-10-12T02:39:56.677Z,59.2
2017-10-12T02:40:58.130Z,59.3
2017-10-12T02:41:59.585Z,59.2
2017-10-12T02:43:01.750Z,59.2
2017-10-12T02:44:02.526Z,59.5
2017-10-12T02:45:04.344Z,59.1
2017-10-12T02:46:06.160Z,59.4
2017-10-12T02:47:08.001Z,59.1
2017-10-12T02:48:10.152Z,59.4
2017-10-12T02:49:12.314Z,59.2
2017-10-12T02:50:13.422Z,59.2
2017-10-12T02:51:15.250Z,59.3
2017-10-12T02:52:17.415Z,59.2
2017-10-12T02:53:19.231Z,59.4
2017-10-12T02:54:21.399Z,59.5
2017-10-12T02:55:23.216Z,59.4
2017-10-12T02:56:24.674Z,59.5
2017-10-12T02:57:26.485Z,59.4
2017-10-12T02:58:27.939Z,59.4
2017-10-12T02:59:29.762Z,59.3
2017-10-12T03:00:31.558Z,59.3
2017-10-12T03:01:33.026Z,59.3
2017-10-12T03:02:34.488Z,59.2
2017-10-12T03:03:36.651Z,59.5
2017-10-12T03:04:38.110Z,59.3
2017-10-12T03:05:39.928Z,59.5
2017-10-12T03:06:42.084Z,59.5
2017-10-12T03:07:43.560Z,59.2
2017-10-12T03:08:45.356Z,59.4
2017-10-12T03:09:47.171Z,59.4
2017-10-12T03:10:48.976Z,59.5
2017-10-12T03:11:51.137Z,59.5
2017-10-12T03:12:52.593Z,59.4
2017-10-12T03:13:54.758Z,59.4
2017-10-12T03:14:55.866Z,59.4
2017-10-12T03:15:57.665Z,59.5
2017-10-12T03:16:59.483Z,59.3
2017-10-12T03:18:01.281Z,59.2
2017-10-12T03:19:03.441Z,59.3
2017-10-12T03:20:05.605Z,59.3
2017-10-12T03:21:07.425Z,59.3
2017-10-12T03:22:09.590Z,59.3
2017-10-12T03:23:11.751Z,59.5
2017-10-12T03:24:13.913Z,59.4
2017-10-12T03:25:15.739Z,59.2
2017-10-12T03:26:17.535Z,59.3
2017-10-12T03:27:19.022Z,59.4
2017-10-12T03:28:21.185Z,59.5
2017-10-12T03:29:23.010Z,59.3
2017-10-12T03:30:24.828Z,59.5
2017-10-12T03:31:26.299Z,59.4
2017-10-12T03:32:28.464Z,59.4
2017-10-12T03:33:30.279Z,59.3
2017-10-12T03:34:31.753Z,59.3
2017-10-12T03:35:33.225Z,59.4
2017-10-12T03:36:34.704Z,59.3
2017-10-12T03:37:36.524Z,59.3
2017-10-12T03:38:38.343Z,59.4
2017-10-12T03:39:40.508Z,59.4
2017-10-12T03:40:41.621Z,59.4
2017-10-12T03:41:43.073Z,59.3
2017-10-12T03:42:44.527Z,59.3
2017-10-12T03:43:46.358Z,59.3
2017-10-12T03:44:47.483Z,59.3
2017-10-12T03:45:49.280Z,59.3
2017-10-12T03:46:51.097Z,59.5
2017-10-12T03:47:52.572Z,59.5
2017-10-12T03:48:54.027Z,59.5
2017-10-12T03:49:55.847Z,59.3
2017-10-12T03:50:57.302Z,59.3
2017-10-12T03:51:59.461Z,59.3
2017-10-12T03:53:01.258Z,59.3
2017-10-12T03:54:02.369Z,59.5
2017-10-12T03:55:03.848Z,59.3
2017-10-12T03:56:05.667Z,59.2
2017-10-12T03:57:07.143Z,59.4
2017-10-12T03:58:09.313Z,59.3
2017-10-12T03:59:11.129Z,59.3
2017-10-12T04:00:12.921Z,59.4
2017-10-12T04:01:15.084Z,59.2
2017-10-12T04:02:17.246Z,59.4
2017-10-12T04:03:19.047Z,59.3
2017-10-12T04:04:21.211Z,59.3
2017-10-12T04:05:23.030Z,59.4
2017-10-12T04:06:24.843Z,59.4
2017-10-12T04:07:26.681Z,59.4
2017-10-12T04:08:27.792Z,59.3
2017-10-12T04:09:29.954Z,59.3
2017-10-12T04:10:32.129Z,59.3
2017-10-12T04:11:34.291Z,59.3
2017-10-12T04:12:36.453Z,59.3
2017-10-12T04:13:38.273Z,59.4
2017-10-12T04:14:40.094Z,59.3
2017-10-12T04:15:41.548Z,59.3
2017-10-12T04:16:43.366Z,59.3
2017-10-12T04:17:44.817Z,59.4
2017-10-12T04:18:46.292Z,59.3
2017-10-12T04:19:48.090Z,59.4
2017-10-12T04:20:50.250Z,59.2
2017-10-12T04:21:52.413Z,59.2
2017-10-12T04:22:54.577Z,59.4
2017-10-12T04:23:55.691Z,59.3
2017-10-12T04:24:57.860Z,59.2
2017-10-12T04:25:59.678Z,59.4
2017-10-12T04:27:01.842Z,59.3
2017-10-12T04:28:03.664Z,59.4
2017-10-12T04:29:05.481Z,59.2
2017-10-12T04:30:07.302Z,59.3
2017-10-12T04:31:09.118Z,59.3
2017-10-12T04:32:11.281Z,59.3
2017-10-12T04:33:13.445Z,59.5
2017-10-12T04:34:15.608Z,59.5
2017-10-12T04:35:17.426Z,59.4
2017-10-12T04:36:19.589Z,59.2
2017-10-12T04:37:21.043Z,59.4
2017-10-12T04:38:23.216Z,59.3
2017-10-12T04:39:25.015Z,59.3
2017-10-12T04:40:27.185Z,59.3
2017-10-12T04:41:28.667Z,59.2
2017-10-12T04:42:30.478Z,59.5
2017-10-12T04:43:32.320Z,59.5
2017-10-12T04:44:33.431Z,59.3
2017-10-12T04:45:34.890Z,59.3
2017-10-12T04:46:36.707Z,59.4
2017-10-12T04:47:38.872Z,59.3
2017-10-12T04:48:41.031Z,59.3
2017-10-12T04:49:42.846Z,59.3
2017-10-12T04:50:44.689Z,59.3
2017-10-12T04:51:46.852Z,59.4
2017-10-12T04:52:48.307Z,59.2
2017-10-12T04:53:50.468Z,59.5
2017-10-12T04:54:52.631Z,59.3
2017-10-12T04:55:54.112Z,59.4
2017-10-12T04:56:55.924Z,59.3
2017-10-12T04:57:57.034Z,59.4
2017-10-12T04:58:59.268Z,59.5
2017-10-12T05:00:01.092Z,59.4
2017-10-12T05:01:02.200Z,59.3
2017-10-12T05:02:03.653Z,59.4
2017-10-12T05:03:05.475Z,59.4
2017-10-12T05:04:07.291Z,59.3
2017-10-12T05:05:08.764Z,59.4
2017-10-12T05:06:10.568Z,59.3
2017-10-12T05:07:12.371Z,59.2
2017-10-12T05:08:14.528Z,59.3
2017-10-12T05:09:16.693Z,59.3
2017-10-12T05:10:18.148Z,59.4
2017-10-12T05:11:19.947Z,59.4
2017-10-12T05:12:21.764Z,59.3
2017-10-12T05:13:23.928Z,59.3
2017-10-12T05:14:25.404Z,59.2
2017-10-12T05:15:27.565Z,59.3
2017-10-12T05:16:29.041Z,59.4
2017-10-12T05:17:30.867Z,59.4
2017-10-12T05:18:32.317Z,59.3
2017-10-12T05:19:33.771Z,59.3
2017-10-12T05:20:35.590Z,59.2
2017-10-12T05:21:37.752Z,59.3
2017-10-12T05:22:39.232Z,59.3
2017-10-12T05:23:40.707Z,59.4
2017-10-12T05:24:42.183Z,59.6
2017-10-12T05:25:44.347Z,59.6
2017-10-12T05:26:46.512Z,59.5
2017-10-12T05:27:48.677Z,59.2
2017-10-12T05:28:50.133Z,59.4
2017-10-12T05:29:52.296Z,59.3
2017-10-12T05:30:54.097Z,59.3
2017-10-12T05:31:55.917Z,59.3
2017-10-12T05:32:57.736Z,59.7
2017-10-12T05:33:59.901Z,59.7
2017-10-12T05:35:01.356Z,59.8
2017-10-12T05:36:03.172Z,59.8
2017-10-12T05:37:04.650Z,59.2
2017-10-12T05:38:06.098Z,59.6
2017-10-12T05:39:07.917Z,59.2
2017-10-12T05:40:09.371Z,59.3
2017-10-12T05:41:11.192Z,59.4
2017-10-12T05:42:13.014Z,59.3
2017-10-12T05:43:15.185Z,59.6
2017-10-12T05:44:17.344Z,59.1
2017-10-12T05:45:18.456Z,59.3
2017-10-12T05:46:19.912Z,59.3
2017-10-12T05:47:21.732Z,59.4
2017-10-12T05:48:23.551Z,59.7
2017-10-12T05:49:24.700Z,59.4
2017-10-12T05:50:26.869Z,59.4
2017-10-12T05:51:28.344Z,59.3
2017-10-12T05:52:30.141Z,59.4
2017-10-12T05:53:32.303Z,59.2
2017-10-12T05:54:33.759Z,59.3
2017-10-12T05:55:35.217Z,59.1
2017-10-12T05:56:37.387Z,59.4
2017-10-12T05:57:39.202Z,59.2
2017-10-12T05:58:41.022Z,59.3
2017-10-12T05:59:43.198Z,59.3
2017-10-12T06:00:45.361Z,59
2017-10-12T06:01:47.527Z,59.3
2017-10-12T06:02:48.980Z,59.3
2017-10-12T06:03:51.141Z,59.2
2017-10-12T06:04:52.679Z,59.5
2017-10-12T06:05:54.494Z,59.2
2017-10-12T06:06:56.313Z,59.8
2017-10-12T06:07:58.132Z,59.5
2017-10-12T06:08:59.607Z,59.7
2017-10-12T06:10:01.820Z,59.3
2017-10-12T06:11:03.295Z,59.5
2017-10-12T06:12:04.064Z,59
2017-10-12T06:13:05.172Z,59.2
2017-10-12T06:14:07.337Z,59.1
2017-10-12T06:15:08.815Z,59.3
2017-10-12T06:16:10.640Z,59.7
2017-10-12T06:17:12.095Z,59
2017-10-12T06:18:13.592Z,59.2
2017-10-12T06:19:15.755Z,59.3
2017-10-12T06:20:17.572Z,59.6
2017-10-12T06:21:19.046Z,59.7
2017-10-12T06:22:21.221Z,59.6
2017-10-12T06:23:22.323Z,59.3
2017-10-12T06:24:24.145Z,59.2
2017-10-12T06:25:26.314Z,59
2017-10-12T06:26:27.766Z,59.3
2017-10-12T06:27:29.245Z,59.3
2017-10-12T06:28:31.065Z,59.3
2017-10-12T06:29:32.864Z,59.4
2017-10-12T06:30:34.344Z,59.4
2017-10-12T06:31:36.169Z,59.4
2017-10-12T06:32:37.990Z,59.3
2017-10-12T06:33:40.161Z,59.7
2017-10-12T06:34:41.634Z,59.3
2017-10-12T06:35:43.460Z,59.5
2017-10-12T06:36:45.617Z,59.3
2017-10-12T06:37:47.438Z,59.4
2017-10-12T06:38:49.599Z,59.5
2017-10-12T06:39:51.767Z,59.4
2017-10-12T06:40:53.927Z,59.4
2017-10-12T06:41:55.751Z,59.4
2017-10-12T06:42:57.224Z,59.5
2017-10-12T06:43:58.699Z,59.5
2017-10-12T06:45:00.868Z,59.4
2017-10-12T06:46:02.664Z,59.5
2017-10-12T06:47:04.141Z,59.4
2017-10-12T06:48:04.920Z,59.4
2017-10-12T06:49:06.728Z,59.4
2017-10-12T06:50:08.891Z,59.1
2017-10-12T06:51:10.714Z,59.2
2017-10-12T06:52:12.189Z,59.3
2017-10-12T06:53:13.668Z,59.5
2017-10-12T06:54:15.127Z,59.3
2017-10-12T06:55:16.947Z,59.2
2017-10-12T06:56:18.771Z,59.2
2017-10-12T06:57:20.590Z,58.9
2017-10-12T06:58:22.772Z,59.5
2017-10-12T06:59:23.885Z,59.6
2017-10-12T07:00:25.706Z,59.2
2017-10-12T07:01:27.164Z,59.3
2017-10-12T07:02:28.963Z,59.3
2017-10-12T07:03:30.437Z,59.3
2017-10-12T07:04:31.892Z,59.3
2017-10-12T07:05:34.053Z,59.3
2017-10-12T07:06:36.217Z,59.1
2017-10-12T07:07:38.016Z,59.1
2017-10-12T07:08:39.836Z,59.1
2017-10-12T07:09:41.657Z,59.1
2017-10-12T07:10:43.477Z,59.1
2017-10-12T07:11:44.936Z,59.1
2017-10-12T07:12:46.409Z,58.8
2017-10-12T07:13:47.528Z,59.1
2017-10-12T07:14:49.357Z,59.5
2017-10-12T07:15:51.172Z,59.4
2017-10-12T07:16:52.992Z,59.4
2017-10-12T07:17:55.157Z,59.4
2017-10-12T07:18:56.982Z,59.5
2017-10-12T07:19:58.800Z,59.5
2017-10-12T07:21:00.969Z,59.3
2017-10-12T07:22:02.448Z,59.3
2017-10-12T07:23:04.241Z,59.3
2017-10-12T07:24:05.696Z,59.4
2017-10-12T07:25:07.150Z,59.3
2017-10-12T07:26:08.606Z,59.3
2017-10-12T07:27:10.425Z,59.5
2017-10-12T07:28:12.225Z,59.4
2017-10-12T07:29:14.416Z,59.5
2017-10-12T07:30:16.237Z,59.1
2017-10-12T07:31:17.714Z,58.8
2017-10-12T07:32:19.222Z,59.2
2017-10-12T07:33:21.402Z,58.9
2017-10-12T07:34:23.562Z,59.1
2017-10-12T07:35:25.379Z,58.6
2017-10-12T07:36:27.200Z,58.8
2017-10-12T07:37:29.021Z,58.7
2017-10-12T07:38:30.843Z,58.6
2017-10-12T07:39:32.317Z,58.8
2017-10-12T07:40:33.436Z,58.6
2017-10-12T07:41:35.232Z,58.6
2017-10-12T07:42:37.050Z,58.8
2017-10-12T07:43:38.157Z,58.3
2017-10-12T07:44:39.614Z,58.5
2017-10-12T07:45:41.066Z,58.1
2017-10-12T07:46:42.870Z,58.4
2017-10-12T07:47:44.737Z,58.2
2017-10-12T07:48:46.902Z,58.2
2017-10-12T07:49:48.386Z,58.5
2017-10-12T07:50:50.188Z,58.9
2017-10-12T07:51:52.350Z,58.2
2017-10-12T07:52:53.828Z,58.5
2017-10-12T07:53:54.939Z,58.4
2017-10-12T07:54:56.414Z,58.3
2017-10-12T07:55:57.888Z,58.2
2017-10-12T07:56:59.344Z,58.6
2017-10-12T07:58:01.244Z,58.5
2017-10-12T07:59:03.059Z,58.3
2017-10-12T08:00:04.857Z,58.6
2017-10-12T08:01:06.337Z,58.6
2017-10-12T08:02:08.506Z,58.3
2017-10-12T08:03:10.373Z,58.3
2017-10-12T08:04:12.535Z,58.3
2017-10-12T08:05:13.990Z,58.5
2017-10-12T08:06:15.446Z,58.7
2017-10-12T08:07:17.271Z,58.2
2017-10-12T08:08:18.796Z,58.6
2017-10-12T08:09:20.274Z,58.8
2017-10-12T08:10:22.124Z,58.1
2017-10-12T08:11:23.363Z,58.1
2017-10-12T08:12:24.592Z,58.3
2017-10-12T08:13:27.136Z,58.2
2017-10-12T08:14:29.089Z,58.1
2017-10-12T08:15:31.370Z,58.4
2017-10-12T08:16:33.270Z,58.3
2017-10-12T08:17:34.814Z,58.4
2017-10-12T08:18:36.796Z,58.2
2017-10-12T08:19:39.152Z,58.2
2017-10-12T08:20:40.343Z,58.5
2017-10-12T08:21:42.227Z,58.1
2017-10-12T08:22:44.491Z,58.4
2017-10-12T08:23:46.812Z,58.2
2017-10-12T08:24:49.068Z,58.1
2017-10-12T08:25:50.664Z,58.1
2017-10-12T08:26:52.651Z,58.1
2017-10-12T08:27:54.279Z,58.1
2017-10-12T08:28:55.538Z,58.1
2017-10-12T08:29:57.799Z,58.1
2017-10-12T08:30:59.360Z,58.5
2017-10-12T08:32:01.340Z,58.6
2017-10-12T08:33:02.887Z,58.4
2017-10-12T08:34:05.221Z,58.1
2017-10-12T08:35:07.176Z,58.4
2017-10-12T08:36:09.426Z,58.4
2017-10-12T08:37:11.687Z,58.2
2017-10-12T08:38:14.089Z,58.1
2017-10-12T08:39:16.478Z,58.3
2017-10-12T08:40:18.121Z,58.4
2017-10-12T08:41:20.046Z,58.2
2017-10-12T08:42:21.618Z,58.2
2017-10-12T08:43:23.149Z,58.3
2017-10-12T08:44:25.527Z,58.1
2017-10-12T08:45:27.090Z,58.1
2017-10-12T08:46:29.020Z,58.1
2017-10-12T08:47:30.545Z,58.1
2017-10-12T08:48:31.725Z,58
2017-10-12T08:49:33.072Z,58.1
2017-10-12T08:50:35.084Z,58.3
2017-10-12T08:51:36.962Z,58.3
2017-10-12T08:52:39.263Z,58.3
2017-10-12T08:53:41.543Z,58
2017-10-12T08:54:43.872Z,58.2
2017-10-12T08:55:45.397Z,58
2017-10-12T08:56:47.252Z,57.9
2017-10-12T08:57:49.076Z,58
2017-10-12T08:58:50.875Z,58.1
2017-10-12T08:59:53.046Z,58.1
2017-10-12T09:00:54.863Z,58.1
2017-10-12T09:01:56.668Z,57.9
2017-10-12T09:02:58.850Z,58
2017-10-12T09:04:00.653Z,58.1
2017-10-12T09:05:02.476Z,58
2017-10-12T09:06:03.589Z,57.9
2017-10-12T09:07:05.412Z,57.9
2017-10-12T09:08:07.213Z,58
2017-10-12T09:09:09.038Z,57.9
2017-10-12T09:10:10.491Z,57.9
2017-10-12T09:11:11.952Z,57.7
2017-10-12T09:12:13.772Z,57.6
2017-10-12T09:13:15.942Z,58
2017-10-12T09:14:18.112Z,57.7
2017-10-12T09:15:18.879Z,57.7
2017-10-12T09:16:20.701Z,57.8
2017-10-12T09:17:21.817Z,57.5
2017-10-12T09:18:23.617Z,57.5
2017-10-12T09:19:25.096Z,57.6
2017-10-12T09:20:26.913Z,57.6
2017-10-12T09:21:28.736Z,57.7
2017-10-12T09:22:30.902Z,57.6
2017-10-12T09:23:32.702Z,57.6
2017-10-12T09:24:34.156Z,57.5
2017-10-12T09:25:35.266Z,57.5
2017-10-12T09:26:37.086Z,57.4
2017-10-12T09:27:39.274Z,57.6
2017-10-12T09:28:41.448Z,57.7
2017-10-12T09:29:43.614Z,57.3
2017-10-12T09:30:45.088Z,57.4
2017-10-12T09:31:46.583Z,57.7
2017-10-12T09:32:48.411Z,57.2
2017-10-12T09:33:49.886Z,57.2
2017-10-12T09:34:51.360Z,57.5
2017-10-12T09:35:53.181Z,57.2
2017-10-12T09:36:55.345Z,57.2
2017-10-12T09:37:57.169Z,57.2
2017-10-12T09:38:58.968Z,57.1
2017-10-12T09:40:00.450Z,57.2
2017-10-12T09:41:02.266Z,57.1
2017-10-12T09:42:03.725Z,56.9
2017-10-12T09:43:05.541Z,57.2
2017-10-12T09:44:07.001Z,57.1
2017-10-12T09:45:08.869Z,57
2017-10-12T09:46:11.044Z,57.2
2017-10-12T09:47:13.207Z,57
2017-10-12T09:48:14.664Z,56.8
2017-10-12T09:49:16.486Z,56.8
2017-10-12T09:50:17.962Z,56.9
2017-10-12T09:51:19.809Z,56.9
2017-10-12T09:52:20.898Z,57.1
2017-10-12T09:53:22.723Z,57
2017-10-12T09:54:24.911Z,57
2017-10-12T09:55:26.713Z,56.9
2017-10-12T09:56:28.543Z,57
2017-10-12T09:57:30.357Z,57
2017-10-12T09:58:32.182Z,56.9
2017-10-12T09:59:34.344Z,56.9
2017-10-12T10:00:36.510Z,56.9
2017-10-12T10:01:37.975Z,56.8
2017-10-12T10:02:39.799Z,57
2017-10-12T10:03:40.559Z,56.8
2017-10-12T10:04:41.333Z,56.9
2017-10-12T10:05:43.490Z,56.8
2017-10-12T10:06:44.945Z,56.6
2017-10-12T10:07:46.750Z,56.7
2017-10-12T10:08:47.859Z,56.6
2017-10-12T10:09:50.026Z,56.7
2017-10-12T10:10:51.834Z,56.7
2017-10-12T10:11:53.286Z,56.8
2017-10-12T10:12:55.454Z,56.6
2017-10-12T10:13:57.273Z,56.8
2017-10-12T10:14:59.094Z,56.7
2017-10-12T10:16:00.916Z,56.7
2017-10-12T10:17:02.030Z,56.7
2017-10-12T10:18:03.507Z,56.8
2017-10-12T10:19:05.330Z,56.7
2017-10-12T10:20:06.790Z,56.8
2017-10-12T10:21:08.647Z,57
2017-10-12T10:22:10.471Z,56.8
2017-10-12T10:23:11.949Z,56.8
2017-10-12T10:24:13.775Z,56.7
2017-10-12T10:25:15.596Z,56.8
2017-10-12T10:26:17.418Z,57
2017-10-12T10:27:18.537Z,56.8
2017-10-12T10:28:19.994Z,56.7
2017-10-12T10:29:22.160Z,56.7
2017-10-12T10:30:23.985Z,56.9
2017-10-12T10:31:25.803Z,56.5
2017-10-12T10:32:27.602Z,56.9
2017-10-12T10:33:28.721Z,56.8
2017-10-12T10:34:30.545Z,56.8
2017-10-12T10:35:32.711Z,56.6
2017-10-12T10:36:34.539Z,56.6
2017-10-12T10:37:36.360Z,56.8
2017-10-12T10:38:38.182Z,56.5
2017-10-12T10:39:40.003Z,56.6
2017-10-12T10:40:42.172Z,56.8
2017-10-12T10:41:43.648Z,56.5
2017-10-12T10:42:45.471Z,56.4
2017-10-12T10:43:47.272Z,56.4
2017-10-12T10:44:49.437Z,56.4
2017-10-12T10:45:50.898Z,56.3
2017-10-12T10:46:52.427Z,56.3
2017-10-12T10:47:54.593Z,56.3
2017-10-12T10:48:56.762Z,56.3
2017-10-12T10:49:58.561Z,56.3
2017-10-12T10:51:00.018Z,56.4
2017-10-12T10:52:02.183Z,56.3
2017-10-12T10:53:04.007Z,56.6
2017-10-12T10:54:05.460Z,56.3
2017-10-12T10:55:07.281Z,56.3
2017-10-12T10:56:08.753Z,56.3
2017-10-12T10:57:10.550Z,56.4
2017-10-12T10:58:12.011Z,56.4
2017-10-12T10:59:13.832Z,56.7
2017-10-12T11:00:15.998Z,56.3
2017-10-12T11:01:17.822Z,56.2
2017-10-12T11:02:19.282Z,56.3
2017-10-12T11:03:20.761Z,56.3
2017-10-12T11:04:22.562Z,56.2
2017-10-12T11:05:24.367Z,56.3
2017-10-12T11:06:26.530Z,56.2
2017-10-12T11:07:28.694Z,56.4
2017-10-12T11:08:30.859Z,56.6
2017-10-12T11:09:32.683Z,56.4
2017-10-12T11:10:34.845Z,56.3
2017-10-12T11:11:36.668Z,56.3
2017-10-12T11:12:38.154Z,56.2
2017-10-12T11:13:40.319Z,56.4
2017-10-12T11:14:41.773Z,56.3
2017-10-12T11:15:42.892Z,56.3
2017-10-12T11:16:44.004Z,56.3
2017-10-12T11:17:46.169Z,56.2
2017-10-12T11:18:47.282Z,56.3
2017-10-12T11:19:49.108Z,56
2017-10-12T11:20:51.275Z,56.2
2017-10-12T11:21:53.081Z,56.3
2017-10-12T11:22:54.883Z,56
2017-10-12T11:23:56.360Z,56.2
2017-10-12T11:24:57.820Z,56.2
2017-10-12T11:25:59.984Z,55.9
2017-10-12T11:27:01.116Z,56.1
2017-10-12T11:28:03.283Z,56.3
2017-10-12T11:29:05.094Z,56
2017-10-12T11:30:07.248Z,56
2017-10-12T11:31:08.702Z,56
2017-10-12T11:32:09.812Z,56.1
2017-10-12T11:33:11.636Z,55.8
2017-10-12T11:34:13.441Z,55.7
2017-10-12T11:35:14.927Z,55.8
2017-10-12T11:36:16.745Z,56
2017-10-12T11:37:18.202Z,55.6
2017-10-12T11:38:20.024Z,55.8
2017-10-12T11:39:21.847Z,55.7
2017-10-12T11:40:24.016Z,55.9
2017-10-12T11:41:25.838Z,55.7
2017-10-12T11:42:27.999Z,55.7
2017-10-12T11:43:30.168Z,55.9
2017-10-12T11:44:31.634Z,55.7
2017-10-12T11:45:33.793Z,55.7
2017-10-12T11:46:35.250Z,55.6
2017-10-12T11:47:37.070Z,55.7
2017-10-12T11:48:39.235Z,55.6
2017-10-12T11:49:40.710Z,55.8
2017-10-12T11:50:42.879Z,55.7
2017-10-12T11:51:44.338Z,55.6
2017-10-12T11:59:39.530Z,55.8
2017-10-12T12:00:41.697Z,55.6
2017-10-12T12:01:43.148Z,56
2017-10-12T12:02:45.312Z,55.8
2017-10-12T12:03:46.789Z,55.9
2017-10-12T12:04:48.607Z,55.9
2017-10-12T12:05:50.771Z,55.9
2017-10-12T12:06:52.932Z,55.7
2017-10-12T12:07:54.412Z,55.6
2017-10-12T12:08:56.626Z,55.8
2017-10-12T12:09:58.798Z,55.7
2017-10-12T12:11:00.601Z,55.7
2017-10-12T12:12:02.423Z,55.6
2017-10-12T12:13:04.228Z,55.4
2017-10-12T12:14:06.027Z,55.4
2017-10-12T12:15:07.847Z,55.7
2017-10-12T12:16:09.667Z,55.8
2017-10-12T12:17:11.831Z,55.4
2017-10-12T12:18:13.309Z,55.4
2017-10-12T12:19:14.786Z,55.8
2017-10-12T12:20:16.953Z,55.8
2017-10-12T12:21:19.119Z,55.2
2017-10-12T12:22:20.949Z,55.8
2017-10-12T12:23:22.763Z,55.8
2017-10-12T12:24:24.221Z,55.7
2017-10-12T12:25:26.044Z,55.8
2017-10-12T12:26:27.866Z,55.8
2017-10-12T12:27:29.326Z,55.9
2017-10-12T12:28:31.150Z,55.8
2017-10-12T12:29:33.321Z,55.7
2017-10-12T12:30:35.145Z,55.2
2017-10-12T12:31:36.618Z,55.3
2017-10-12T12:32:38.416Z,55.3
2017-10-12T12:33:40.239Z,55.4
2017-10-12T12:34:41.745Z,55.5
2017-10-12T12:35:43.568Z,55.3
2017-10-12T12:36:45.387Z,55.4
2017-10-12T12:37:47.215Z,55.4
2017-10-12T12:38:48.318Z,55.4
2017-10-12T12:39:50.486Z,55.2
2017-10-12T12:40:51.965Z,55.3
2017-10-12T12:41:53.438Z,55.4
2017-10-12T12:42:54.532Z,55.6
2017-10-12T12:43:56.701Z,55.6
2017-10-12T12:44:58.873Z,55.4
2017-10-12T12:46:00.688Z,55.3
2017-10-12T12:47:02.143Z,55.6
2017-10-12T12:48:04.312Z,55.6
2017-10-12T12:49:05.770Z,55.4
2017-10-12T12:50:07.588Z,55.7
2017-10-12T12:51:09.752Z,55.6
2017-10-12T12:52:11.555Z,55.3
2017-10-12T12:53:13.725Z,55.4
2017-10-12T12:54:15.550Z,55.2
2017-10-12T12:55:17.476Z,55.4
2017-10-12T12:56:19.636Z,55.5
2017-10-12T12:57:21.456Z,55.7
2017-10-12T12:58:22.934Z,55.1
2017-10-12T12:59:24.760Z,54.9
2017-10-12T13:00:25.868Z,55
2017-10-12T13:01:27.355Z,55.1
2017-10-12T13:02:29.176Z,54.9
2017-10-12T13:03:31.001Z,55.1
2017-10-12T13:04:33.163Z,55.1
2017-10-12T13:05:34.620Z,55
2017-10-12T13:06:36.832Z,55
2017-10-12T13:07:38.652Z,55.6
2017-10-12T13:08:39.769Z,55.4
2017-10-12T13:09:41.593Z,55.4
2017-10-12T13:10:42.725Z,55.3
2017-10-12T13:11:44.555Z,55.3
2017-10-12T13:12:46.718Z,55.4
2017-10-12T13:13:48.515Z,55.1
2017-10-12T13:14:49.632Z,55.1
2017-10-12T13:15:51.474Z,55.1
2017-10-12T13:16:52.954Z,55.1
2017-10-12T13:17:54.779Z,55.1
2017-10-12T13:18:56.603Z,55.1
2017-10-12T13:19:58.429Z,55.2
2017-10-12T13:21:00.256Z,54.8
2017-10-12T13:22:02.443Z,55
2017-10-12T13:23:04.264Z,55.1
2017-10-12T13:24:05.722Z,55.1
2017-10-12T13:25:07.202Z,55.1
2017-10-12T13:26:09.379Z,55.2
2017-10-12T13:27:11.203Z,54.9
2017-10-12T13:28:12.677Z,55.3
2017-10-12T13:29:14.134Z,55.1
2017-10-12T13:30:15.613Z,54.9
2017-10-12T13:31:17.776Z,55.1
2017-10-12T13:32:19.235Z,55.2
2017-10-12T13:33:21.058Z,55
2017-10-12T13:34:22.534Z,55
2017-10-12T13:35:24.331Z,54.8
2017-10-12T13:36:25.101Z,55
2017-10-12T13:37:26.922Z,55.4
2017-10-12T13:38:27.692Z,55
2017-10-12T13:39:29.148Z,55.5
2017-10-12T13:40:30.618Z,55.4
2017-10-12T13:41:32.096Z,55.3
2017-10-12T13:42:34.259Z,55
2017-10-12T13:43:35.717Z,54.9
2017-10-12T13:44:37.539Z,55.3
2017-10-12T13:45:38.652Z,55
2017-10-12T13:46:40.469Z,54.9
2017-10-12T13:47:41.948Z,55.6
2017-10-12T13:48:43.769Z,55.4
2017-10-12T13:49:45.247Z,55.3
2017-10-12T13:50:47.065Z,54.9
2017-10-12T13:51:48.867Z,55